createdAt,value
2017-02-11T00:01:00.839Z,0
2017-02-11T00:02:11.170Z,0
2017-02-11T00:03:21.101Z,0
2017-02-11T00:04:31.437Z,0
2017-02-11T00:05:41.651Z,0
2017-02-11T00:06:51.984Z,0
2017-02-11T00:08:01.902Z,0
2017-02-11T00:09:11.820Z,0
2017-02-11T00:10:21.738Z,0
2017-02-11T00:11:31.948Z,0
2017-02-11T00:12:42.271Z,0
2017-02-11T00:13:51.776Z,0
2017-02-11T00:15:01.691Z,0
2017-02-11T00:16:12.026Z,0
2017-02-11T00:17:22.295Z,0
2017-02-11T00:18:32.624Z,0
2017-02-11T00:19:42.545Z,0
2017-02-11T00:20:52.869Z,0
2017-02-11T00:22:02.784Z,0
2017-02-11T00:23:13.004Z,0
2017-02-11T00:24:22.911Z,0
2017-02-11T00:25:33.242Z,0
2017-02-11T00:26:43.161Z,0
2017-02-11T00:27:53.489Z,0
2017-02-11T00:29:04.160Z,0
2017-02-11T00:30:14.501Z,0
2017-02-11T00:31:24.831Z,0
2017-02-11T00:32:35.153Z,0
2017-02-11T00:33:45.479Z,0
2017-02-11T00:34:56.163Z,0
2017-02-11T00:36:06.492Z,0
2017-02-11T00:37:16.823Z,0
2017-02-11T00:38:27.155Z,0
2017-02-11T00:39:37.078Z,0
2017-02-11T00:40:47.862Z,0
2017-02-11T00:41:57.781Z,0
2017-02-11T00:43:08.113Z,0
2017-02-11T00:44:17.620Z,0
2017-02-11T00:45:27.538Z,0
2017-02-11T00:46:37.077Z,0
2017-02-11T00:47:46.170Z,0
2017-02-11T00:48:55.670Z,0
2017-02-11T00:50:05.586Z,0
2017-02-11T00:51:15.920Z,0
2017-02-11T00:52:25.726Z,0
2017-02-11T00:53:36.064Z,0
2017-02-11T00:54:45.980Z,0
2017-02-11T00:55:56.314Z,0
2017-02-11T00:57:06.229Z,0
2017-02-11T00:58:16.502Z,0
2017-02-11T00:59:26.008Z,0
2017-02-11T01:00:36.341Z,0
2017-02-11T01:01:46.670Z,0
2017-02-11T01:02:56.579Z,0
2017-02-11T01:04:07.369Z,0
2017-02-11T01:05:16.040Z,0
2017-02-11T01:06:26.373Z,0
2017-02-11T01:07:36.703Z,0
2017-02-11T01:08:46.620Z,0
2017-02-11T01:09:56.882Z,0
2017-02-11T01:11:06.788Z,0
2017-02-11T01:12:16.698Z,0
2017-02-11T01:13:27.032Z,0
2017-02-11T01:14:37.369Z,0
2017-02-11T01:15:47.684Z,0
2017-02-11T01:16:57.596Z,0
2017-02-11T01:18:07.930Z,0
2017-02-11T01:19:18.269Z,0
2017-02-11T01:20:28.604Z,0
2017-02-11T01:21:39.366Z,0
2017-02-11T01:22:49.701Z,0
2017-02-11T01:23:59.622Z,0
2017-02-11T01:25:09.536Z,0
2017-02-11T01:26:19.866Z,0
2017-02-11T01:27:30.620Z,0
2017-02-11T01:28:40.537Z,0
2017-02-11T01:29:50.045Z,0
2017-02-11T01:30:59.137Z,0
2017-02-11T01:32:09.474Z,0
2017-02-11T01:33:19.844Z,0
2017-02-11T01:34:30.177Z,0
2017-02-11T01:35:39.686Z,0
2017-02-11T01:36:49.597Z,0
2017-02-11T01:37:59.922Z,0
2017-02-11T01:39:10.680Z,0
2017-02-11T01:40:20.593Z,0
2017-02-11T01:41:30.925Z,0
2017-02-11T01:42:41.251Z,0
2017-02-11T01:43:51.167Z,0
2017-02-11T01:45:01.942Z,0
2017-02-11T01:46:11.440Z,0
2017-02-11T01:47:21.360Z,0
2017-02-11T01:48:31.692Z,0
2017-02-11T01:49:41.608Z,0
2017-02-11T01:50:51.915Z,0
2017-02-11T01:52:01.420Z,0
2017-02-11T01:53:11.338Z,0
2017-02-11T01:54:20.838Z,0
2017-02-11T01:55:30.749Z,0
2017-02-11T01:56:41.481Z,0
2017-02-11T01:57:51.809Z,0
2017-02-11T01:59:02.143Z,0
2017-02-11T02:00:12.478Z,0
2017-02-11T02:01:22.811Z,0
2017-02-11T02:02:33.132Z,0
2017-02-11T02:03:43.051Z,0
2017-02-11T02:04:52.963Z,0
2017-02-11T02:06:03.302Z,0
2017-02-11T02:07:13.221Z,0
2017-02-11T02:08:23.956Z,0
2017-02-11T02:09:34.293Z,0
2017-02-11T02:10:44.628Z,0
2017-02-11T02:11:54.541Z,0
2017-02-11T02:13:04.876Z,0
2017-02-11T02:14:15.564Z,0
2017-02-11T02:15:25.473Z,0
2017-02-11T02:16:35.392Z,0
2017-02-11T02:17:45.720Z,0
2017-02-11T02:18:55.221Z,0
2017-02-11T02:20:12.255Z,0
2017-02-11T02:21:22.581Z,0
2017-02-11T02:22:32.906Z,0
2017-02-11T02:23:42.865Z,0
2017-02-11T02:24:53.196Z,0
2017-02-11T02:26:03.872Z,0
2017-02-11T02:27:14.195Z,0
2017-02-11T02:28:24.518Z,0
2017-02-11T02:29:34.427Z,0
2017-02-11T02:30:43.917Z,0
2017-02-11T02:31:54.591Z,0
2017-02-11T02:33:04.082Z,0
2017-02-11T02:34:13.991Z,0
2017-02-11T02:35:24.324Z,0
2017-02-11T02:36:34.647Z,0
2017-02-11T02:37:44.486Z,0
2017-02-11T02:38:54.396Z,0
2017-02-11T02:40:04.312Z,0
2017-02-11T02:41:14.635Z,0
2017-02-11T02:42:24.967Z,0
2017-02-11T02:43:35.638Z,0
2017-02-11T02:44:45.971Z,0
2017-02-11T02:45:55.880Z,0
2017-02-11T02:47:06.204Z,0
2017-02-11T02:48:16.524Z,0
2017-02-11T02:49:26.788Z,0
2017-02-11T02:50:37.111Z,0
2017-02-11T02:51:47.428Z,0
2017-02-11T02:52:57.808Z,0
2017-02-11T02:54:07.719Z,0
2017-02-11T02:55:18.346Z,0
2017-02-11T02:56:28.256Z,0
2017-02-11T02:57:38.579Z,0
2017-02-11T02:58:48.902Z,0
2017-02-11T02:59:59.227Z,0
2017-02-11T03:01:09.902Z,0
2017-02-11T03:02:19.811Z,0
2017-02-11T03:03:29.720Z,0
2017-02-11T03:04:40.046Z,0
2017-02-11T03:05:50.363Z,0
2017-02-11T03:07:01.036Z,0
2017-02-11T03:08:10.942Z,0
2017-02-11T03:09:20.851Z,0
2017-02-11T03:10:31.179Z,0
2017-02-11T03:11:40.677Z,0
2017-02-11T03:12:50.524Z,0
2017-02-11T03:14:00.856Z,0
2017-02-11T03:15:10.769Z,0
2017-02-11T03:16:20.676Z,0
2017-02-11T03:17:31.000Z,0
2017-02-11T03:18:41.261Z,0
2017-02-11T03:19:51.586Z,0
2017-02-11T03:21:01.913Z,0
2017-02-11T03:22:11.857Z,0
2017-02-11T03:23:22.180Z,0
2017-02-11T03:24:32.975Z,0
2017-02-11T03:25:43.333Z,0
2017-02-11T03:26:52.414Z,0
2017-02-11T03:28:02.741Z,0
2017-02-11T03:29:12.650Z,0
2017-02-11T03:30:22.913Z,0
2017-02-11T03:31:33.256Z,0
2017-02-11T03:32:43.594Z,0
2017-02-11T03:33:53.913Z,0
2017-02-11T03:35:04.237Z,0
2017-02-11T03:36:14.495Z,0
2017-02-11T03:37:24.402Z,0
2017-02-11T03:38:34.725Z,0
2017-02-11T03:39:44.628Z,0
2017-02-11T03:40:54.979Z,0
2017-02-11T03:42:05.193Z,0
2017-02-11T03:43:15.519Z,0
2017-02-11T03:44:25.836Z,0
2017-02-11T03:45:36.158Z,0
2017-02-11T03:46:45.654Z,0
2017-02-11T03:47:56.324Z,0
2017-02-11T03:49:06.647Z,0
2017-02-11T03:50:15.724Z,0
2017-02-11T03:51:25.639Z,0
2017-02-11T03:52:35.132Z,0
2017-02-11T03:53:45.805Z,0
2017-02-11T03:54:56.124Z,0
2017-02-11T03:56:06.031Z,0
2017-02-11T03:57:16.383Z,0
2017-02-11T03:58:26.703Z,0
2017-02-11T03:59:36.911Z,0
2017-02-11T04:00:46.822Z,0
2017-02-11T04:01:57.145Z,0
2017-02-11T04:03:07.468Z,0
2017-02-11T04:04:17.380Z,0
2017-02-11T04:05:28.056Z,0
2017-02-11T04:06:38.377Z,0
2017-02-11T04:07:48.705Z,0
2017-02-11T04:08:58.617Z,0
2017-02-11T04:10:08.111Z,0
2017-02-11T04:11:18.373Z,0
2017-02-11T04:12:27.893Z,0
2017-02-11T04:13:38.220Z,0
2017-02-11T04:14:47.712Z,0
2017-02-11T04:15:57.623Z,0
2017-02-11T04:17:07.933Z,0
2017-02-11T04:18:18.256Z,0
2017-02-11T04:19:28.165Z,0
2017-02-11T04:20:38.491Z,0
2017-02-11T04:21:48.403Z,0
2017-02-11T04:22:58.248Z,0
2017-02-11T04:24:08.568Z,0
2017-02-11T04:25:18.890Z,0
2017-02-11T04:26:28.797Z,0
2017-02-11T04:27:38.702Z,0
2017-02-11T04:28:49.373Z,0
2017-02-11T04:29:59.693Z,0
2017-02-11T04:31:09.601Z,0
2017-02-11T04:32:19.923Z,0
2017-02-11T04:33:29.830Z,0
2017-02-11T04:34:40.143Z,0
2017-02-11T04:35:50.054Z,0
2017-02-11T04:36:59.962Z,0
2017-02-11T04:38:10.280Z,0
2017-02-11T04:39:20.188Z,0
2017-02-11T04:40:30.443Z,0
2017-02-11T04:41:40.766Z,0
2017-02-11T04:42:50.730Z,0
2017-02-11T04:44:00.230Z,0
2017-02-11T04:45:10.552Z,0
2017-02-11T04:46:21.325Z,0
2017-02-11T04:47:30.821Z,0
2017-02-11T04:48:41.147Z,0
2017-02-11T04:49:51.469Z,0
2017-02-11T04:51:01.381Z,0
2017-02-11T04:52:10.862Z,0
2017-02-11T04:53:21.190Z,0
2017-02-11T04:54:31.522Z,0
2017-02-11T04:55:41.847Z,0
2017-02-11T04:56:52.167Z,0
2017-02-11T04:58:02.841Z,0
2017-02-11T04:59:12.750Z,0
2017-02-11T05:00:22.657Z,0
2017-02-11T05:01:32.564Z,0
2017-02-11T05:02:42.888Z,0
2017-02-11T05:03:53.102Z,0
2017-02-11T05:05:03.428Z,0
2017-02-11T05:06:13.345Z,0
2017-02-11T05:07:23.250Z,0
2017-02-11T05:08:33.155Z,0
2017-02-11T05:09:43.853Z,0
2017-02-11T05:10:53.344Z,0
2017-02-11T05:12:03.667Z,0
2017-02-11T05:13:13.991Z,0
2017-02-11T05:14:24.318Z,0
2017-02-11T05:15:35.090Z,0
2017-02-11T05:16:45.412Z,0
2017-02-11T05:17:55.325Z,0
2017-02-11T05:19:05.660Z,0
2017-02-11T05:20:15.591Z,0
2017-02-11T05:21:26.366Z,0
2017-02-11T05:22:36.722Z,0
2017-02-11T05:23:47.043Z,0
2017-02-11T05:24:56.535Z,0
2017-02-11T05:26:06.854Z,0
2017-02-11T05:27:17.010Z,0
2017-02-11T05:28:26.499Z,0
2017-02-11T05:29:35.992Z,0
2017-02-11T05:30:46.313Z,0
2017-02-11T05:31:56.229Z,0
2017-02-11T05:33:06.495Z,0
2017-02-11T05:34:16.403Z,0
2017-02-11T05:35:26.721Z,0
2017-02-11T05:36:37.053Z,0
2017-02-11T05:37:46.544Z,0
2017-02-11T05:38:57.162Z,0
2017-02-11T05:40:07.070Z,0
2017-02-11T05:41:17.390Z,0
2017-02-11T05:42:27.300Z,0
2017-02-11T05:43:37.211Z,0
2017-02-11T05:44:47.884Z,0
2017-02-11T05:45:57.785Z,0
2017-02-11T05:47:08.106Z,0
2017-02-11T05:48:18.431Z,0
2017-02-11T05:49:28.753Z,0
2017-02-11T05:50:39.530Z,0
2017-02-11T05:51:49.440Z,0
2017-02-11T05:52:59.760Z,0
2017-02-11T05:54:09.666Z,0
2017-02-11T05:55:19.989Z,0
2017-02-11T05:56:30.660Z,0
2017-02-11T05:57:40.978Z,0
2017-02-11T05:58:50.889Z,0
2017-02-11T06:00:00.803Z,0
2017-02-11T06:01:10.716Z,0
2017-02-11T06:02:20.659Z,0
2017-02-11T06:03:30.985Z,0
2017-02-11T06:04:40.491Z,0
2017-02-11T06:05:50.815Z,0
2017-02-11T06:07:01.139Z,0
2017-02-11T06:08:11.402Z,0
2017-02-11T06:09:21.312Z,0
2017-02-11T06:10:31.635Z,0
2017-02-11T06:11:41.956Z,0
2017-02-11T06:12:51.865Z,0
2017-02-11T06:14:02.537Z,0
2017-02-11T06:15:12.443Z,0
2017-02-11T06:16:22.767Z,0
2017-02-11T06:17:33.093Z,0
2017-02-11T06:18:43.411Z,0
2017-02-11T06:19:54.034Z,0
2017-02-11T06:21:04.358Z,0
2017-02-11T06:22:14.267Z,0
2017-02-11T06:23:23.348Z,4
2017-02-11T06:24:33.671Z,4
2017-02-11T06:25:43.932Z,0
2017-02-11T06:26:54.255Z,4
2017-02-11T06:28:04.576Z,4
2017-02-11T06:29:14.073Z,4
2017-02-11T06:30:23.565Z,8
2017-02-11T06:31:33.411Z,4
2017-02-11T06:32:43.316Z,8
2017-02-11T06:33:53.644Z,12
2017-02-11T06:35:03.559Z,12
2017-02-11T06:36:13.464Z,16
2017-02-11T06:37:24.085Z,16
2017-02-11T06:38:34.409Z,16
2017-02-11T06:39:44.320Z,24
2017-02-11T06:40:54.641Z,24
2017-02-11T06:42:04.551Z,32
2017-02-11T06:43:14.734Z,36
2017-02-11T06:44:24.240Z,40
2017-02-11T06:45:34.559Z,44
2017-02-11T06:46:44.470Z,52
2017-02-11T06:47:54.378Z,56
2017-02-11T06:49:05.456Z,64
2017-02-11T06:50:14.949Z,72
2017-02-11T06:51:24.855Z,80
2017-02-11T06:52:34.764Z,84
2017-02-11T06:53:45.085Z,96
2017-02-11T06:54:55.709Z,104
2017-02-11T06:56:05.618Z,116
2017-02-11T06:57:15.112Z,124
2017-02-11T06:58:25.020Z,132
2017-02-11T06:59:35.343Z,144
2017-02-11T07:00:45.617Z,160
2017-02-11T07:01:55.936Z,180
2017-02-11T07:03:05.848Z,196
2017-02-11T07:04:16.172Z,200
2017-02-11T07:05:26.494Z,208
2017-02-11T07:06:36.754Z,224
2017-02-11T07:07:46.666Z,244
2017-02-11T07:08:56.157Z,252
2017-02-11T07:10:05.651Z,264
2017-02-11T07:11:15.145Z,288
2017-02-11T07:12:25.416Z,308
2017-02-11T07:13:35.740Z,336
2017-02-11T07:14:46.061Z,368
2017-02-11T07:15:55.969Z,404
2017-02-11T07:17:05.879Z,412
2017-02-11T07:18:16.138Z,428
2017-02-11T07:19:26.047Z,448
2017-02-11T07:20:36.368Z,484
2017-02-11T07:21:46.686Z,516
2017-02-11T07:22:56.600Z,560
2017-02-11T07:24:07.273Z,608
2017-02-11T07:25:16.768Z,640
2017-02-11T07:26:26.680Z,684
2017-02-11T07:27:36.591Z,728
2017-02-11T07:28:46.497Z,780
2017-02-11T07:29:57.220Z,800
2017-02-11T07:31:07.560Z,824
2017-02-11T07:32:17.059Z,840
2017-02-11T07:33:27.381Z,852
2017-02-11T07:34:37.703Z,892
2017-02-11T07:35:47.908Z,904
2017-02-11T07:36:57.814Z,976
2017-02-11T07:38:07.723Z,1036
2017-02-11T07:39:17.209Z,1092
2017-02-11T07:40:27.119Z,1120
2017-02-11T07:41:37.378Z,1144
2017-02-11T07:42:47.284Z,1148
2017-02-11T07:43:57.202Z,1180
2017-02-11T07:45:07.109Z,1212
2017-02-11T07:46:17.430Z,1220
2017-02-11T07:47:27.690Z,1220
2017-02-11T07:48:37.599Z,1168
2017-02-11T07:49:47.924Z,1116
2017-02-11T07:50:58.253Z,1100
2017-02-11T07:52:08.578Z,1004
2017-02-11T07:53:18.753Z,996
2017-02-11T07:54:29.077Z,996
2017-02-11T07:55:39.403Z,1044
2017-02-11T07:56:49.723Z,1100
2017-02-11T07:58:00.044Z,1152
2017-02-11T07:59:10.664Z,1188
2017-02-11T08:00:20.986Z,1236
2017-02-11T08:01:30.896Z,1292
2017-02-11T08:02:41.226Z,1336
2017-02-11T08:03:51.549Z,1376
2017-02-11T08:05:01.816Z,1428
2017-02-11T08:06:12.140Z,1464
2017-02-11T08:07:21.637Z,1552
2017-02-11T08:08:31.961Z,1572
2017-02-11T08:09:41.868Z,1620
2017-02-11T08:10:52.588Z,1616
2017-02-11T08:12:02.919Z,1592
2017-02-11T08:13:12.826Z,1596
2017-02-11T08:14:23.149Z,1588
2017-02-11T08:15:32.644Z,1572
2017-02-11T08:16:42.076Z,1560
2017-02-11T08:17:51.986Z,1568
2017-02-11T08:19:02.313Z,1560
2017-02-11T08:20:12.220Z,1556
2017-02-11T08:21:22.541Z,1556
2017-02-11T08:22:33.213Z,1576
2017-02-11T08:23:43.118Z,1556
2017-02-11T08:24:53.027Z,1528
2017-02-11T08:26:02.944Z,1500
2017-02-11T08:27:13.270Z,1492
2017-02-11T08:28:23.890Z,1476
2017-02-11T08:29:33.797Z,1476
2017-02-11T08:30:44.119Z,1492
2017-02-11T08:31:54.443Z,1496
2017-02-11T08:33:04.770Z,1524
2017-02-11T08:34:15.087Z,1576
2017-02-11T08:35:24.992Z,1600
2017-02-11T08:36:35.327Z,1640
2017-02-11T08:37:44.823Z,1676
2017-02-11T08:38:55.148Z,1648
2017-02-11T08:40:05.452Z,1624
2017-02-11T08:41:15.361Z,1632
2017-02-11T08:42:25.685Z,1632
2017-02-11T08:43:35.590Z,1652
2017-02-11T08:44:45.499Z,1724
2017-02-11T08:45:56.220Z,1764
2017-02-11T08:47:06.126Z,1824
2017-02-11T08:48:15.635Z,1872
2017-02-11T08:49:25.130Z,1960
2017-02-11T08:50:35.449Z,1976
2017-02-11T08:51:45.764Z,2064
2017-02-11T08:52:55.673Z,2092
2017-02-11T08:54:05.596Z,2076
2017-02-11T08:55:15.921Z,2088
2017-02-11T08:56:26.246Z,2076
2017-02-11T08:57:36.871Z,2076
2017-02-11T08:58:47.193Z,2108
2017-02-11T08:59:56.688Z,2168
2017-02-11T09:01:07.013Z,2244
2017-02-11T09:02:17.339Z,2368
2017-02-11T09:03:27.187Z,2472
2017-02-11T09:04:37.511Z,2556
2017-02-11T09:05:47.005Z,2624
2017-02-11T09:06:56.918Z,2656
2017-02-11T09:08:06.832Z,2692
2017-02-11T09:09:16.268Z,2728
2017-02-11T09:10:26.592Z,2788
2017-02-11T09:11:36.918Z,3336
2017-02-11T09:12:47.237Z,3440
2017-02-11T09:13:57.145Z,3460
2017-02-11T09:15:07.777Z,3592
2017-02-11T09:16:17.691Z,3484
2017-02-11T09:17:27.602Z,3548
2017-02-11T09:18:37.955Z,3588
2017-02-11T09:19:48.281Z,3760
2017-02-11T09:20:58.178Z,3744
2017-02-11T09:22:08.086Z,4000
2017-02-11T09:23:18.412Z,4044
2017-02-11T09:24:28.735Z,4112
2017-02-11T09:25:38.232Z,4256
2017-02-11T09:26:48.906Z,4196
2017-02-11T09:27:59.230Z,4192
2017-02-11T09:29:09.548Z,4216
2017-02-11T09:30:19.460Z,4236
2017-02-11T09:31:29.780Z,4256
2017-02-11T09:32:39.610Z,4356
2017-02-11T09:33:49.520Z,4320
2017-02-11T09:34:59.021Z,4120
2017-02-11T09:36:09.345Z,3968
2017-02-11T09:37:18.424Z,3832
2017-02-11T09:38:29.099Z,3660
2017-02-11T09:39:39.418Z,3552
2017-02-11T09:40:49.329Z,3452
2017-02-11T09:41:59.242Z,3416
2017-02-11T09:43:09.567Z,3332
2017-02-11T09:44:20.137Z,3316
2017-02-11T09:45:29.629Z,3372
2017-02-11T09:46:39.949Z,3368
2017-02-11T09:47:49.860Z,3424
2017-02-11T09:49:00.188Z,3288
2017-02-11T09:50:10.809Z,3208
2017-02-11T09:51:20.716Z,3236
2017-02-11T09:52:31.040Z,3248
2017-02-11T09:53:41.364Z,3292
2017-02-11T09:54:51.273Z,3400
2017-02-11T09:56:01.897Z,3356
2017-02-11T09:57:11.394Z,3384
2017-02-11T09:58:21.722Z,3464
2017-02-11T09:59:59.136Z,3660
2017-02-11T10:01:09.399Z,3856
2017-02-11T10:02:19.720Z,3916
2017-02-11T10:03:30.043Z,4096
2017-02-11T10:04:39.948Z,4196
2017-02-11T10:05:49.859Z,4388
2017-02-11T10:07:00.532Z,4500
2017-02-11T10:08:09.616Z,4680
2017-02-11T10:09:19.112Z,4648
2017-02-11T10:10:29.021Z,4732
2017-02-11T10:11:38.930Z,4820
2017-02-11T10:12:49.555Z,4724
2017-02-11T10:13:59.879Z,4824
2017-02-11T10:15:09.783Z,4776
2017-02-11T10:16:20.111Z,4740
2017-02-11T10:17:30.017Z,4900
2017-02-11T10:18:40.642Z,4992
2017-02-11T10:19:50.553Z,4860
2017-02-11T10:21:00.876Z,5320
2017-02-11T10:22:10.374Z,5604
2017-02-11T10:23:20.699Z,5744
2017-02-11T10:24:30.595Z,6368
2017-02-11T10:25:40.944Z,6712
2017-02-11T10:26:50.436Z,7276
2017-02-11T10:28:00.762Z,7852
2017-02-11T10:29:10.676Z,8268
2017-02-11T10:30:21.348Z,8688
2017-02-11T10:31:31.671Z,9084
2017-02-11T10:32:41.994Z,9428
2017-02-11T10:33:51.493Z,9572
2017-02-11T10:35:01.821Z,9680
2017-02-11T10:36:12.035Z,9980
2017-02-11T10:37:21.562Z,10020
2017-02-11T10:38:31.476Z,10148
2017-02-11T10:39:41.384Z,10232
2017-02-11T10:40:50.882Z,10088
2017-02-11T10:42:01.192Z,9784
2017-02-11T10:43:11.524Z,9748
2017-02-11T10:44:21.850Z,9548
2017-02-11T10:45:31.765Z,9020
2017-02-11T10:46:42.092Z,9224
2017-02-11T10:47:52.357Z,9368
2017-02-11T10:49:02.681Z,9460
2017-02-11T10:50:13.014Z,9456
2017-02-11T10:51:23.369Z,9392
2017-02-11T10:52:33.696Z,9200
2017-02-11T10:53:44.406Z,9388
2017-02-11T10:54:54.316Z,9384
2017-02-11T10:56:04.662Z,9488
2017-02-11T10:57:14.590Z,9596
2017-02-11T10:58:24.914Z,9576
2017-02-11T10:59:35.594Z,9396
2017-02-11T11:00:45.508Z,8992
2017-02-11T11:01:55.480Z,8600
2017-02-11T11:03:05.393Z,8276
2017-02-11T11:04:15.313Z,8168
2017-02-11T11:05:25.579Z,8052
2017-02-11T11:06:35.490Z,7904
2017-02-11T11:07:44.992Z,7752
2017-02-11T11:08:54.907Z,7776
2017-02-11T11:10:04.457Z,7716
2017-02-11T11:11:15.138Z,7712
2017-02-11T11:12:25.052Z,7752
2017-02-11T11:13:34.967Z,7860
2017-02-11T11:14:45.294Z,7992
2017-02-11T11:15:55.619Z,8200
2017-02-11T11:17:05.832Z,8488
2017-02-11T11:18:15.742Z,8804
2017-02-11T11:19:25.240Z,8828
2017-02-11T11:20:34.745Z,9044
2017-02-11T11:21:44.663Z,9276
2017-02-11T11:22:55.340Z,9576
2017-02-11T11:24:05.248Z,10064
2017-02-11T11:25:15.161Z,10388
2017-02-11T11:26:25.071Z,10664
2017-02-11T11:27:35.396Z,10908
2017-02-11T11:28:46.070Z,11220
2017-02-11T11:29:55.155Z,11620
2017-02-11T11:31:05.071Z,12716
2017-02-11T11:32:14.982Z,13648
2017-02-11T11:33:25.305Z,14344
2017-02-11T11:34:36.034Z,14648
2017-02-11T11:35:45.947Z,14252
2017-02-11T11:36:56.272Z,13416
2017-02-11T11:38:06.597Z,12588
2017-02-11T11:39:16.967Z,11652
2017-02-11T11:40:27.187Z,10372
2017-02-11T11:41:37.154Z,9980
2017-02-11T11:42:46.655Z,9652
2017-02-11T11:43:56.982Z,9304
2017-02-11T11:45:07.317Z,9316
2017-02-11T11:46:17.531Z,9420
2017-02-11T11:47:27.453Z,9568
2017-02-11T11:48:37.391Z,10012
2017-02-11T11:49:47.305Z,10356
2017-02-11T11:50:57.217Z,10664
2017-02-11T11:52:07.890Z,10956
2017-02-11T11:53:17.802Z,11252
2017-02-11T11:54:27.300Z,11516
2017-02-11T11:55:37.646Z,11640
2017-02-11T11:56:47.557Z,11428
2017-02-11T11:57:58.190Z,10896
2017-02-11T11:59:08.517Z,10776
2017-02-11T12:00:18.850Z,10580
2017-02-11T12:01:28.358Z,10164
2017-02-11T12:02:38.683Z,9736
2017-02-11T12:03:49.410Z,9732
2017-02-11T12:04:59.731Z,9856
2017-02-11T12:06:09.655Z,10072
2017-02-11T12:07:19.976Z,10192
2017-02-11T12:08:30.299Z,10540
2017-02-11T12:09:40.514Z,10996
2017-02-11T12:10:50.425Z,11424
2017-02-11T12:11:59.951Z,11976
2017-02-11T12:13:09.862Z,12256
2017-02-11T12:14:20.197Z,12248
2017-02-11T12:15:30.819Z,12584
2017-02-11T12:16:40.319Z,12376
2017-02-11T12:17:50.730Z,12040
2017-02-11T12:19:01.058Z,11844
2017-02-11T12:20:10.965Z,11520
2017-02-11T12:21:21.645Z,11048
2017-02-11T12:22:31.976Z,10768
2017-02-11T12:23:41.885Z,10564
2017-02-11T12:24:51.792Z,10440
2017-02-11T12:26:01.293Z,10348
2017-02-11T12:27:12.022Z,10180
2017-02-11T12:28:22.344Z,10272
2017-02-11T12:29:32.677Z,10332
2017-02-11T12:30:42.589Z,10316
2017-02-11T12:31:52.916Z,10428
2017-02-11T12:33:03.646Z,10428
2017-02-11T12:34:13.972Z,10256
2017-02-11T12:35:24.298Z,10012
2017-02-11T12:36:34.209Z,10344
2017-02-11T12:37:44.128Z,10532
2017-02-11T12:38:54.396Z,10952
2017-02-11T12:40:04.734Z,11160
2017-02-11T12:41:15.067Z,10916
2017-02-11T12:42:25.395Z,10932
2017-02-11T12:43:35.726Z,10180
2017-02-11T12:44:46.400Z,10528
2017-02-11T12:45:56.774Z,10968
2017-02-11T12:47:07.102Z,10960
2017-02-11T12:48:17.013Z,10764
2017-02-11T12:49:26.510Z,10564
2017-02-11T12:50:37.248Z,10012
2017-02-11T12:51:47.167Z,9912
2017-02-11T12:52:57.495Z,9904
2017-02-11T12:54:07.829Z,9772
2017-02-11T12:55:17.745Z,10804
2017-02-11T12:56:28.461Z,11680
2017-02-11T12:57:38.372Z,12324
2017-02-11T12:58:48.704Z,12464
2017-02-11T12:59:59.035Z,12884
2017-02-11T13:01:08.951Z,12872
2017-02-11T13:02:19.220Z,12428
2017-02-11T13:03:29.138Z,11864
2017-02-11T13:04:39.050Z,11040
2017-02-11T13:05:49.376Z,11004
2017-02-11T13:06:59.289Z,10864
2017-02-11T13:08:09.541Z,10648
2017-02-11T13:09:19.458Z,10132
2017-02-11T13:10:28.958Z,9536
2017-02-11T13:11:39.285Z,8892
2017-02-11T13:12:49.610Z,8288
2017-02-11T13:14:00.276Z,7908
2017-02-11T13:15:09.774Z,7828
2017-02-11T13:16:20.095Z,7604
2017-02-11T13:17:30.416Z,7332
2017-02-11T13:18:40.327Z,7068
2017-02-11T13:19:51.059Z,6780
2017-02-11T13:21:00.555Z,6716
2017-02-11T13:22:10.883Z,6804
2017-02-11T13:23:21.249Z,7116
2017-02-11T13:24:31.158Z,7340
2017-02-11T13:25:41.465Z,7244
2017-02-11T13:26:51.795Z,7308
2017-02-11T13:28:02.127Z,7360
2017-02-11T13:29:12.459Z,7672
2017-02-11T13:30:22.377Z,7876
2017-02-11T13:31:33.054Z,7964
2017-02-11T13:32:43.383Z,8024
2017-02-11T13:33:53.711Z,8116
2017-02-11T13:35:04.039Z,8068
2017-02-11T13:36:13.116Z,7800
2017-02-11T13:37:23.376Z,7560
2017-02-11T13:38:33.701Z,7276
2017-02-11T13:39:44.029Z,6904
2017-02-11T13:40:54.357Z,6596
2017-02-11T13:42:04.270Z,6268
2017-02-11T13:43:14.167Z,5900
2017-02-11T13:44:24.494Z,5628
2017-02-11T13:45:34.456Z,5548
2017-02-11T13:46:43.955Z,5516
2017-02-11T13:47:53.863Z,5536
2017-02-11T13:49:04.123Z,5532
2017-02-11T13:50:14.032Z,5312
2017-02-11T13:51:23.945Z,5100
2017-02-11T13:52:34.270Z,4920
2017-02-11T13:53:43.351Z,5028
2017-02-11T13:54:53.611Z,4924
2017-02-11T13:56:03.935Z,4964
2017-02-11T13:57:14.268Z,5024
2017-02-11T13:58:24.595Z,4940
2017-02-11T13:59:34.920Z,4980
2017-02-11T14:00:45.167Z,4960
2017-02-11T14:01:55.490Z,5084
2017-02-11T14:03:05.817Z,4996
2017-02-11T14:04:16.140Z,5012
2017-02-11T14:05:26.466Z,4972
2017-02-11T14:06:36.791Z,5372
2017-02-11T14:07:47.115Z,5548
2017-02-11T14:08:57.437Z,5848
2017-02-11T14:10:07.761Z,6148
2017-02-11T14:11:17.670Z,6684
2017-02-11T14:12:28.297Z,7336
2017-02-11T14:13:38.624Z,7420
2017-02-11T14:14:48.534Z,8104
2017-02-11T14:15:58.449Z,8512
2017-02-11T14:17:08.363Z,8904
2017-02-11T14:18:19.444Z,9320
2017-02-11T14:19:29.355Z,9464
2017-02-11T14:20:39.328Z,9448
2017-02-11T14:21:49.654Z,9660
2017-02-11T14:22:59.570Z,9804
2017-02-11T14:24:09.832Z,10540
2017-02-11T14:25:19.745Z,11056
2017-02-11T14:26:29.658Z,10456
2017-02-11T14:27:39.981Z,10332
2017-02-11T14:28:49.892Z,9984
2017-02-11T14:30:00.153Z,9728
2017-02-11T14:31:10.068Z,9800
2017-02-11T14:32:20.392Z,9800
2017-02-11T14:33:30.721Z,9688
2017-02-11T14:34:40.634Z,9620
2017-02-11T14:35:51.313Z,9616
2017-02-11T14:37:01.229Z,9668
2017-02-11T14:38:11.555Z,9804
2017-02-11T14:39:21.882Z,9844
2017-02-11T14:40:31.792Z,9684
2017-02-11T14:41:42.566Z,9636
2017-02-11T14:42:52.478Z,9700
2017-02-11T14:44:02.385Z,9560
2017-02-11T14:45:12.293Z,9432
2017-02-11T14:46:22.625Z,9172
2017-02-11T14:47:32.989Z,8840
2017-02-11T14:48:42.904Z,8460
2017-02-11T14:49:53.232Z,8180
2017-02-11T14:51:03.556Z,7956
2017-02-11T14:52:13.891Z,7492
2017-02-11T14:53:24.103Z,7164
2017-02-11T14:54:34.431Z,6736
2017-02-11T14:55:44.754Z,6256
2017-02-11T14:56:54.666Z,5908
2017-02-11T14:58:04.575Z,5620
2017-02-11T14:59:14.935Z,5340
2017-02-11T15:00:25.270Z,4980
2017-02-11T15:01:35.598Z,4688
2017-02-11T15:02:45.928Z,4440
2017-02-11T15:03:55.014Z,4248
2017-02-11T15:05:05.590Z,4064
2017-02-11T15:06:15.499Z,3920
2017-02-11T15:07:25.410Z,3796
2017-02-11T15:08:35.737Z,3692
2017-02-11T15:09:45.658Z,3588
2017-02-11T15:10:56.318Z,3532
2017-02-11T15:12:06.667Z,3548
2017-02-11T15:13:16.166Z,3556
2017-02-11T15:14:26.493Z,3640
2017-02-11T15:15:36.822Z,3696
2017-02-11T15:16:48.285Z,3676
2017-02-11T15:17:58.615Z,3636
2017-02-11T15:19:08.524Z,3552
2017-02-11T15:20:18.437Z,3412
2017-02-11T15:21:28.345Z,3276
2017-02-11T15:22:38.604Z,3152
2017-02-11T15:23:48.526Z,3052
2017-02-11T15:24:58.851Z,2980
2017-02-11T15:26:08.775Z,2908
2017-02-11T15:27:18.689Z,2812
2017-02-11T15:28:29.312Z,2656
2017-02-11T15:29:39.223Z,2512
2017-02-11T15:30:49.550Z,2356
2017-02-11T15:31:59.465Z,2232
2017-02-11T15:33:09.834Z,2176
2017-02-11T15:34:20.197Z,2088
2017-02-11T15:35:30.525Z,2024
2017-02-11T15:36:40.443Z,1972
2017-02-11T15:37:49.941Z,1928
2017-02-11T15:39:00.275Z,1864
2017-02-11T15:40:10.489Z,1780
2017-02-11T15:41:20.813Z,1704
2017-02-11T15:42:30.731Z,1644
2017-02-11T15:43:40.640Z,1588
2017-02-11T15:44:50.963Z,1540
2017-02-11T15:46:01.639Z,1476
2017-02-11T15:47:11.544Z,1416
2017-02-11T15:48:21.046Z,1376
2017-02-11T15:49:31.378Z,1356
2017-02-11T15:50:41.702Z,1308
2017-02-11T15:51:52.428Z,1248
2017-02-11T15:53:02.757Z,1200
2017-02-11T15:54:12.666Z,1168
2017-02-11T15:55:22.161Z,1144
2017-02-11T15:56:32.073Z,1100
2017-02-11T15:57:42.434Z,1064
2017-02-11T15:58:52.340Z,992
2017-02-11T16:00:02.670Z,936
2017-02-11T16:01:12.580Z,924
2017-02-11T16:02:22.900Z,932
2017-02-11T16:03:33.629Z,892
2017-02-11T16:04:43.545Z,812
2017-02-11T16:05:52.627Z,804
2017-02-11T16:07:02.953Z,744
2017-02-11T16:08:12.867Z,688
2017-02-11T16:09:23.489Z,652
2017-02-11T16:10:33.408Z,644
2017-02-11T16:11:43.729Z,620
2017-02-11T16:12:54.054Z,576
2017-02-11T16:14:04.382Z,536